Time;durP1;ratioP1;P1;durP2;ratioP2;P2;SDS_P1;SDS_P2;PMS_P1;PMS_P2;Temp;Humidity;BMP_temperature;BMP_pressure;BME280_temperature;BME280_humidity;BME280_pressure;Samples;Min_cycle;Max_cycle;Signal;HPM_P1;HPM_P2
2024/01/28 00:02:20;;;;;;;14.07;7.28;;;12.60;91.00;;;;;;5032382;28;20130;-66
2024/01/28 00:04:46;;;;;;;12.73;7.30;;;;;;;;;;5033890;28;20057;-66
2024/01/28 00:07:12;;;;;;;13.98;6.95;;;;;;;;;;5065019;28;20046;-65
2024/01/28 00:09:38;;;;;;;16.65;7.38;;;12.50;91.00;;;;;;5033809;28;20064;-66
2024/01/28 00:12:04;;;;;;;15.30;7.15;;;12.50;91.00;;;;;;5032374;28;20050;-66
2024/01/28 00:14:30;;;;;;;12.50;7.00;;;;;;;;;;5065236;28;20092;-66
2024/01/28 00:16:56;;;;;;;14.80;7.13;;;;;;;;;;5015666;28;20059;-65
2024/01/28 00:19:22;;;;;;;12.20;6.53;;;;;;;;;;5033264;28;20052;-66
2024/01/28 00:21:48;;;;;;;12.35;6.45;;;;;;;;;;5033109;28;20060;-66
2024/01/28 00:24:14;;;;;;;13.05;7.30;;;;;;;;;;5033108;28;20041;-65
2024/01/28 00:26:40;;;;;;;12.93;6.60;;;;;;;;;;5033391;28;20068;-66
2024/01/28 00:29:07;;;;;;;11.95;6.82;;;;;;;;;;5033462;28;20049;-66
2024/01/28 00:31:32;;;;;;;15.10;7.00;;;12.60;91.00;;;;;;5033105;28;20053;-66
2024/01/28 00:33:59;;;;;;;13.18;7.10;;;12.20;89.50;;;;;;5031695;28;20462;-66
2024/01/28 00:36:25;;;;;;;13.35;6.72;;;;;;;;;;5015326;28;20059;-66
2024/01/28 00:38:52;;;;;;;12.13;7.25;;;;;;;;;;5031517;28;20107;-66
2024/01/28 00:41:28;;;;;;;13.00;6.85;;;12.40;89.70;;;;;;5031430;28;20057;-66
2024/01/28 00:43:54;;;;;;;13.57;6.85;;;12.60;90.20;;;;;;5031797;28;20041;-67
2024/01/28 00:46:20;;;;;;;13.55;7.25;;;;;;;;;;5032835;28;20115;-66
2024/01/28 00:48:46;;;;;;;12.27;6.22;;;12.30;89.10;;;;;;5031465;28;20049;-65
2024/01/28 00:51:13;;;;;;;12.52;6.68;;;12.40;89.10;;;;;;5033032;28;20402;-66
2024/01/28 00:53:39;;;;;;;12.82;7.00;;;;;;;;;;5031432;28;20112;-66
2024/01/28 00:56:04;;;;;;;11.35;6.57;;;12.50;90.90;;;;;;5032704;28;20041;-66
2024/01/28 00:58:30;;;;;;;13.45;6.50;;;12.50;90.80;;;;;;5032851;28;20497;-66
2024/01/28 01:00:56;;;;;;;14.38;7.20;;;;;;;;;;5031158;28;20056;-65
2024/01/28 01:03:22;;;;;;;12.90;5.53;;;;;;;;;;5031246;28;20048;-65
2024/01/28 01:05:48;;;;;;;11.48;5.32;;;12.50;91.10;;;;;;5031169;28;20053;-65
2024/01/28 01:08:14;;;;;;;14.15;6.60;;;;;;;;;;4998453;28;20099;-66
2024/01/28 01:10:43;;;;;;;13.38;6.72;;;12.50;88.20;;;;;;5031373;28;20049;-66
2024/01/28 01:13:09;;;;;;;17.35;7.03;;;;;;;;;;5030774;28;20128;-65
2024/01/28 01:15:35;;;;;;;11.25;4.97;;;12.40;89.80;;;;;;5030948;28;20047;-66
2024/01/28 01:18:01;;;;;;;10.20;5.63;;;;;;;;;;5030979;28;20049;-65
2024/01/28 01:20:27;;;;;;;11.52;6.72;;;;;;;;;;5032377;28;20084;-65
2024/01/28 01:22:54;;;;;;;11.48;6.85;;;;;;;;;;5032186;28;20488;-66
2024/01/28 01:25:20;;;;;;;14.70;7.03;;;;;;;;;;5032466;28;20167;-66
2024/01/28 01:27:48;;;;;;;13.30;6.78;;;12.20;90.80;;;;;;5014649;28;20061;-66
2024/01/28 01:30:14;;;;;;;13.68;6.40;;;;;;;;;;5031036;28;20107;-66
2024/01/28 01:32:40;;;;;;;12.75;7.32;;;;;;;;;;5031067;28;20050;-66
2024/01/28 01:35:14;;;;;;;14.13;5.20;;;;;;;;;;5030988;28;20111;-66
2024/01/28 01:37:40;;;;;;;11.38;5.60;;;12.20;91.00;;;;;;5014470;28;20554;-66
2024/01/28 01:40:07;;;;;;;12.30;5.68;;;;;;;;;;5030641;28;20131;-66
2024/01/28 01:42:33;;;;;;;11.63;6.88;;;;;;;;;;5031622;28;20442;-65
2024/01/28 01:44:59;;;;;;;13.32;6.90;;;;;;;;;;5014094;28;20045;-66
2024/01/28 01:47:26;;;;;;;14.63;7.07;;;;;;;;;;5009032;28;20060;-66
2024/01/28 01:49:52;;;;;;;14.00;7.20;;;;;;;;;;5011042;28;20133;-66
2024/01/28 01:52:18;;;;;;;13.15;6.72;;;;;;;;;;5027523;28;20100;-65
2024/01/28 01:54:44;;;;;;;11.20;5.30;;;;;;;;;;5010787;28;20107;-65
2024/01/28 01:57:10;;;;;;;12.68;7.05;;;;;;;;;;4994476;28;20050;-66
2024/01/28 01:59:36;;;;;;;12.93;6.65;;;12.00;90.60;;;;;;5010685;28;20069;-66
2024/01/28 02:02:02;;;;;;;12.75;7.40;;;;;;;;;;4994103;28;20048;-65
2024/01/28 02:04:28;;;;;;;12.80;7.05;;;;;;;;;;4997163;28;20080;-66
2024/01/28 02:06:54;;;;;;;14.32;6.88;;;;;;;;;;5010610;28;20056;-66
2024/01/28 02:09:20;;;;;;;11.98;6.60;;;;;;;;;;5011835;28;20053;-67
2024/01/28 02:11:46;;;;;;;11.48;6.55;;;;;;;;;;5026947;28;20038;-66
2024/01/28 02:14:28;;;;;;;14.63;6.50;;;;;;;;;;5011732;28;20132;-65
2024/01/28 02:16:54;;;;;;;14.73;7.47;;;;;;;;;;5012106;28;20049;-65
2024/01/28 02:19:21;;;;;;;13.43;6.75;;;;;;;;;;5010659;28;20060;-67
2024/01/28 02:21:47;;;;;;;13.77;6.60;;;11.90;89.80;;;;;;5015531;28;20618;-65
2024/01/28 02:24:13;;;;;;;12.80;6.50;;;12.00;90.00;;;;;;5026838;28;20128;-66
2024/01/28 02:26:40;;;;;;;9.07;4.82;;;;;;;;;;5029630;28;20041;-66
2024/01/28 02:29:06;;;;;;;13.77;5.70;;;;;;;;;;5030134;28;20140;-66
2024/01/28 02:31:32;;;;;;;14.30;5.88;;;12.00;90.90;;;;;;5063176;28;20095;-66
2024/01/28 02:33:58;;;;;;;14.18;5.05;;;;;;;;;;5046832;28;20049;-66
2024/01/28 02:36:28;;;;;;;11.27;6.55;;;12.10;87.60;;;;;;5030351;28;20057;-66
2024/01/28 02:38:54;;;;;;;12.27;6.30;;;;;;;;;;4988180;28;20066;-66
2024/01/28 02:41:20;;;;;;;12.85;6.85;;;;;;;;;;5010197;28;20512;-66
2024/01/28 02:43:46;;;;;;;11.73;6.75;;;;;;;;;;4993973;28;20058;-66
2024/01/28 02:46:14;;;;;;;12.57;7.13;;;;;;;;;;5010485;28;20396;-66
2024/01/28 02:48:40;;;;;;;12.35;6.80;;;12.00;90.60;;;;;;4994430;28;20046;-66
2024/01/28 02:51:06;;;;;;;12.32;6.47;;;;;;;;;;5010273;28;20389;-66
2024/01/28 02:53:33;;;;;;;10.70;6.18;;;;;;;;;;5010290;28;20081;-66
2024/01/28 02:56:00;;;;;;;10.60;6.22;;;;;;;;;;5057225;28;20045;-66
2024/01/28 02:58:30;;;;;;;14.40;6.88;;;12.10;89.10;;;;;;5033789;28;20415;-66
2024/01/28 03:00:56;;;;;;;13.32;6.57;;;;;;;;;;5017294;28;20152;-66
2024/01/28 03:03:22;;;;;;;11.88;5.65;;;;;;;;;;5035075;28;20568;-66
2024/01/28 03:05:48;;;;;;;14.63;5.88;;;;;;;;;;5034652;28;20471;-66
2024/01/28 03:08:14;;;;;;;12.57;7.00;;;;;;;;;;5034949;28;20050;-66
2024/01/28 03:10:40;;;;;;;12.70;7.03;;;12.00;90.40;;;;;;5033250;28;20056;-66
2024/01/28 03:13:06;;;;;;;11.88;5.60;;;;;;;;;;5034423;28;20049;-66
2024/01/28 03:15:32;;;;;;;19.98;6.45;;;;;;;;;;5034356;28;20057;-66
2024/01/28 03:17:58;;;;;;;12.00;7.20;;;;;;;;;;5034757;28;20045;-66
2024/01/28 03:20:25;;;;;;;13.27;7.22;;;;;;;;;;5034583;28;20050;-65
2024/01/28 03:22:51;;;;;;;13.45;7.45;;;;;;;;;;5034766;28;20452;-66
2024/01/28 03:25:17;;;;;;;12.77;6.72;;;;;;;;;;5033056;28;20132;-66
2024/01/28 03:27:43;;;;;;;12.68;5.75;;;;;;;;;;5033316;28;20099;-66
2024/01/28 03:30:09;;;;;;;11.88;5.43;;;;;;;;;;5034175;28;20563;-66
2024/01/28 03:32:36;;;;;;;10.10;5.65;;;;;;;;;;5032977;28;20085;-66
2024/01/28 03:35:02;;;;;;;15.13;5.72;;;12.10;90.60;;;;;;5033030;28;20108;-66
2024/01/28 03:37:28;;;;;;;13.55;6.57;;;;;;;;;;5032810;28;20053;-66
2024/01/28 03:39:54;;;;;;;13.53;7.10;;;11.80;90.40;;;;;;5033948;28;20062;-66
2024/01/28 03:42:20;;;;;;;13.50;6.97;;;;;;;;;;5034393;28;20062;-66
2024/01/28 03:44:46;;;;;;;14.02;6.93;;;;;;;;;;5033843;28;20081;-66
2024/01/28 03:47:12;;;;;;;12.93;7.40;;;;;;;;;;5033830;28;20053;-66
2024/01/28 03:49:38;;;;;;;14.55;7.38;;;;;;;;;;5034156;28;20132;-66
2024/01/28 03:52:04;;;;;;;13.55;7.20;;;11.80;87.50;;;;;;5049243;28;20055;-67
2024/01/28 03:54:30;;;;;;;11.73;7.03;;;;;;;;;;5032525;28;20143;-66
2024/01/28 03:56:56;;;;;;;13.93;7.18;;;;;;;;;;5032484;28;20560;-66
2024/01/28 03:59:23;;;;;;;12.93;6.18;;;;;;;;;;5032494;28;20502;-66
2024/01/28 04:01:49;;;;;;;13.30;6.90;;;;;;;;;;5032275;28;20041;-66
2024/01/28 04:04:15;;;;;;;13.02;6.90;;;;;;;;;;5048486;28;20053;-66
2024/01/28 04:06:44;;;;;;;15.60;6.68;;;;;;;;;;5033322;28;20057;-66
2024/01/28 04:09:10;;;;;;;10.02;5.03;;;12.10;90.70;;;;;;5016204;28;20049;-66
2024/01/28 04:11:36;;;;;;;14.07;7.53;;;;;;;;;;5032226;28;20089;-65
2024/01/28 04:14:02;;;;;;;13.38;6.70;;;11.90;90.40;;;;;;5032054;28;20052;-66
2024/01/28 04:16:28;;;;;;;12.25;6.18;;;11.80;90.40;;;;;;5015961;28;20038;-66
2024/01/28 04:18:54;;;;;;;12.30;6.90;;;12.00;90.50;;;;;;5032139;28;20049;-66
2024/01/28 04:21:23;;;;;;;11.93;6.60;;;;;;;;;;5031888;28;20162;-66
2024/01/28 04:23:51;;;;;;;11.82;5.60;;;;;;;;;;5015969;28;20521;-66
2024/01/28 04:26:17;;;;;;;14.48;7.38;;;;;;;;;;5031840;28;20495;-66
2024/01/28 04:28:43;;;;;;;12.93;6.85;;;11.90;90.40;;;;;;5015499;28;20128;-66
2024/01/28 04:31:09;;;;;;;11.60;6.75;;;;;;;;;;5033148;28;20124;-66
2024/01/28 04:33:35;;;;;;;14.57;7.25;;;;;;;;;;5033047;28;20110;-67
2024/01/28 04:36:01;;;;;;;14.93;7.32;;;;;;;;;;5033350;28;20049;-66
2024/01/28 04:38:28;;;;;;;11.88;6.68;;;;;;;;;;5031319;28;20064;-66
2024/01/28 04:40:54;;;;;;;13.77;7.07;;;12.00;89.90;;;;;;5033121;28;20127;-65
2024/01/28 04:43:20;;;;;;;12.73;6.85;;;;;;;;;;5033097;28;20444;-66
2024/01/28 04:45:46;;;;;;;9.65;5.10;;;;;;;;;;5031606;28;20904;-66
2024/01/28 04:48:12;;;;;;;10.63;5.57;;;;;;;;;;5032871;28;20045;-66
2024/01/28 04:50:38;;;;;;;11.68;6.97;;;;;;;;;;5032679;28;20055;-66
2024/01/28 04:53:04;;;;;;;12.57;7.22;;;12.00;90.40;;;;;;5033073;28;20077;-68
2024/01/28 04:55:30;;;;;;;12.13;6.95;;;;;;;;;;5064544;28;20521;-66
2024/01/28 04:57:56;;;;;;;14.10;7.32;;;;;;;;;;5032929;28;20068;-66
2024/01/28 05:00:22;;;;;;;11.95;7.15;;;;;;;;;;5032812;28;20140;-66
2024/01/28 05:02:48;;;;;;;10.88;5.03;;;;;;;;;;5048228;28;20053;-66
2024/01/28 05:05:14;;;;;;;15.77;7.25;;;11.90;90.40;;;;;;5031621;28;20060;-67
2024/01/28 05:07:40;;;;;;;12.27;7.15;;;;;;;;;;5033008;28;20049;-66
2024/01/28 05:10:06;;;;;;;16.80;7.60;;;11.80;88.80;;;;;;5031741;28;20052;-66
2024/01/28 05:12:32;;;;;;;14.05;5.68;;;;;;;;;;5032960;28;20138;-66
2024/01/28 05:14:58;;;;;;;9.68;5.10;;;;;;;;;;5032566;28;20248;-66
2024/01/28 05:17:24;;;;;;;14.18;6.35;;;;;;;;;;5031938;28;20045;-66
2024/01/28 05:19:50;;;;;;;12.23;7.03;;;11.60;90.40;;;;;;5032331;28;20127;-66
2024/01/28 05:22:15;;;;;;;13.75;7.22;;;11.80;90.50;;;;;;5032456;28;20081;-66
2024/01/28 05:24:42;;;;;;;13.30;7.43;;;;;;;;;;5014884;28;20041;-67
2024/01/28 05:27:08;;;;;;;12.75;7.00;;;;;;;;;;5031055;28;20072;-66
2024/01/28 05:29:35;;;;;;;14.13;7.38;;;;;;;;;;5030367;28;20033;-66
2024/01/28 05:32:01;;;;;;;10.32;5.50;;;;;;;;;;5032438;28;20524;-66
2024/01/28 05:34:27;;;;;;;13.60;6.70;;;;;;;;;;5030665;28;20045;-66
2024/01/28 05:36:53;;;;;;;12.25;7.18;;;;;;;;;;5031019;28;20056;-66
2024/01/28 05:39:18;;;;;;;13.65;7.15;;;11.70;90.00;;;;;;5030384;28;20064;-67
2024/01/28 05:41:44;;;;;;;12.85;5.50;;;11.70;90.60;;;;;;5014066;28;20049;-66
2024/01/28 05:44:10;;;;;;;12.05;6.95;;;;;;;;;;5030476;28;20087;-67
2024/01/28 05:46:37;;;;;;;13.05;7.60;;;;;;;;;;4999641;28;20426;-66
2024/01/28 05:49:03;;;;;;;14.10;7.35;;;;;;;;;;5010838;28;20046;-66
2024/01/28 05:51:30;;;;;;;10.85;5.93;;;;;;;;;;5043718;28;20092;-66
2024/01/28 05:53:57;;;;;;;11.88;5.30;;;;;;;;;;5011013;28;20484;-66
2024/01/28 05:56:23;;;;;;;11.57;6.72;;;;;;;;;;5010958;28;20594;-66
2024/01/28 05:58:49;;;;;;;15.20;7.32;;;;;;;;;;5012339;28;20549;-66
2024/01/28 06:01:15;;;;;;;12.50;6.90;;;;;;;;;;5043857;28;20050;-66
2024/01/28 06:03:41;;;;;;;12.75;6.93;;;;;;;;;;5040101;28;20454;-66
2024/01/28 06:06:08;;;;;;;16.50;7.32;;;;;;;;;;5010612;28;20046;-67
2024/01/28 06:08:34;;;;;;;13.75;6.35;;;;;;;;;;5010870;28;20053;-66
2024/01/28 06:11:00;;;;;;;9.77;5.30;;;;;;;;;;5043590;28;20065;-66
2024/01/28 06:13:26;;;;;;;12.52;6.68;;;;;;;;;;5043519;28;20060;-66
2024/01/28 06:15:52;;;;;;;14.07;7.32;;;11.50;90.20;;;;;;5011822;28;20056;-66
2024/01/28 06:18:19;;;;;;;11.63;5.18;;;11.40;86.80;;;;;;5011841;28;20184;-66
2024/01/28 06:20:45;;;;;;;14.18;6.85;;;;;;;;;;5010277;28;20045;-67
2024/01/28 06:23:11;;;;;;;9.48;5.28;;;;;;;;;;5012038;28;20467;-67
2024/01/28 06:25:37;;;;;;;11.57;5.07;;;;;;;;;;5010622;28;20392;-66
2024/01/28 06:28:03;;;;;;;9.32;5.38;;;;;;;;;;5010371;28;20053;-66
2024/01/28 06:30:32;;;;;;;11.75;6.50;;;11.50;90.30;;;;;;5013681;28;20053;-66
2024/01/28 06:32:58;;;;;;;10.68;6.68;;;;;;;;;;5014325;28;20058;-66
2024/01/28 06:35:24;;;;;;;16.70;6.80;;;;;;;;;;5064041;28;20395;-66
2024/01/28 06:37:50;;;;;;;11.60;5.75;;;;;;;;;;5035253;28;20183;-66
2024/01/28 06:40:16;;;;;;;12.68;6.82;;;;;;;;;;5034991;28;20046;-66
2024/01/28 06:42:42;;;;;;;12.02;5.53;;;11.70;90.60;;;;;;5035208;28;20050;-66
2024/01/28 06:45:08;;;;;;;9.63;5.10;;;11.70;90.60;;;;;;5050312;28;20071;-66
2024/01/28 06:47:34;;;;;;;15.10;6.97;;;;;;;;;;5034072;28;20416;-66
2024/01/28 06:50:01;;;;;;;10.82;5.82;;;;;;;;;;5033973;28;20111;-66
2024/01/28 06:52:27;;;;;;;12.63;6.93;;;;;;;;;;5035250;28;20099;-66
2024/01/28 06:54:53;;;;;;;14.10;5.72;;;;;;;;;;5033579;28;20045;-66
2024/01/28 06:57:19;;;;;;;11.35;6.40;;;;;;;;;;5035188;28;20045;-67
2024/01/28 06:59:45;;;;;;;9.75;5.43;;;;;;;;;;5017396;28;20480;-66
2024/01/28 07:02:12;;;;;;;11.35;6.63;;;;;;;;;;5033414;28;20148;-66
2024/01/28 07:04:38;;;;;;;10.65;6.45;;;;;;;;;;5033430;28;20064;-66
2024/01/28 07:07:04;;;;;;;12.38;6.25;;;;;;;;;;5035081;28;20060;-67
2024/01/28 07:09:30;;;;;;;12.80;6.57;;;;;;;;;;5034909;28;20444;-66
2024/01/28 07:11:56;;;;;;;10.32;5.00;;;11.60;90.60;;;;;;5033133;28;20053;-66
2024/01/28 07:14:22;;;;;;;11.25;4.75;;;;;;;;;;5033548;28;20104;-67
2024/01/28 07:16:49;;;;;;;8.73;4.57;;;;;;;;;;5034457;28;20052;-66
2024/01/28 07:19:15;;;;;;;11.75;6.20;;;;;;;;;;5016964;28;20061;-66
2024/01/28 07:21:41;;;;;;;12.10;6.15;;;;;;;;;;5033135;28;20049;-66
2024/01/28 07:24:08;;;;;;;8.98;4.75;;;;;;;;;;5033176;28;20095;-66
2024/01/28 07:26:34;;;;;;;10.57;4.97;;;;;;;;;;5034680;28;20398;-66
2024/01/28 07:29:00;;;;;;;11.75;5.47;;;11.00;90.30;;;;;;5034449;28;20045;-67
2024/01/28 07:31:26;;;;;;;11.38;4.95;;;11.50;90.40;;;;;;5032941;28;20538;-66
2024/01/28 07:33:52;;;;;;;11.55;5.93;;;11.50;90.20;;;;;;5034482;28;20391;-66
2024/01/28 07:36:18;;;;;;;10.93;4.60;;;;;;;;;;5033143;28;20080;-66
2024/01/28 07:38:44;;;;;;;10.05;4.97;;;;;;;;;;5032701;28;20053;-66
2024/01/28 07:41:16;;;;;;;10.07;4.53;;;;;;;;;;5031694;28;20068;-66
2024/01/28 07:43:42;;;;;;;9.98;4.72;;;;;;;;;;5033019;28;20454;-66
2024/01/28 07:46:11;;;;;;;10.18;5.70;;;11.30;86.50;;;;;;5013431;28;20535;-66
2024/01/28 07:48:37;;;;;;;11.43;6.55;;;11.50;90.20;;;;;;4996658;28;20057;-66
2024/01/28 07:51:04;;;;;;;10.48;4.57;;;;;;;;;;5013183;28;20395;-66
2024/01/28 07:53:30;;;;;;;10.10;4.30;;;;;;;;;;5045968;28;20061;-66
2024/01/28 07:55:56;;;;;;;14.70;5.68;;;;;;;;;;5012737;28;20053;-66
2024/01/28 07:58:22;;;;;;;10.85;5.63;;;;;;;;;;5013098;28;20381;-66
2024/01/28 08:00:48;;;;;;;11.15;4.93;;;;;;;;;;5046089;28;20053;-66
2024/01/28 08:03:14;;;;;;;14.30;5.35;;;;;;;;;;5032398;28;20046;-66
2024/01/28 08:05:40;;;;;;;9.93;4.78;;;;;;;;;;5032342;28;20115;-66
2024/01/28 08:08:07;;;;;;;10.70;5.57;;;10.90;90.30;;;;;;5032598;28;20136;-67
2024/01/28 08:10:33;;;;;;;9.85;4.82;;;11.50;90.50;;;;;;5032204;28;20073;-66
2024/01/28 08:12:59;;;;;;;11.88;5.68;;;;;;;;;;5033776;28;20080;-66
2024/01/28 08:15:25;;;;;;;8.93;5.20;;;;;;;;;;5033652;28;20123;-66
2024/01/28 08:17:51;;;;;;;10.55;5.40;;;;;;;;;;5033308;28;20132;-66
2024/01/28 08:20:17;;;;;;;9.15;4.28;;;10.80;90.30;;;;;;5048618;28;20041;-67
2024/01/28 08:22:43;;;;;;;11.25;5.75;;;;;;;;;;5015746;28;20045;-66
2024/01/28 08:25:11;;;;;;;12.65;4.50;;;11.40;90.40;;;;;;5032222;28;20057;-66
2024/01/28 08:27:38;;;;;;;10.82;5.38;;;;;;;;;;5032014;28;20124;-66
2024/01/28 08:30:05;;;;;;;10.32;4.47;;;;;;;;;;5032197;28;20049;-66
2024/01/28 08:32:31;;;;;;;10.70;4.38;;;;;;;;;;5032912;28;20084;-67
2024/01/28 08:34:57;;;;;;;9.63;5.90;;;11.30;90.10;;;;;;5031549;28;20049;-66
2024/01/28 08:37:23;;;;;;;8.40;4.03;;;11.40;90.40;;;;;;5031770;28;20052;-66
2024/01/28 08:39:48;;;;;;;9.68;5.38;;;11.30;90.00;;;;;;5031652;28;20061;-66
2024/01/28 08:42:16;;;;;;;9.82;4.40;;;11.50;90.40;;;;;;5033114;28;20136;-66
2024/01/28 08:44:42;;;;;;;10.60;4.50;;;;;;;;;;5033096;28;20049;-66
2024/01/28 08:47:08;;;;;;;10.63;4.03;;;;;;;;;;5032822;28;20087;-66
2024/01/28 08:49:34;;;;;;;10.32;5.45;;;11.40;87.30;;;;;;5015154;28;20049;-66
2024/01/28 08:52:01;;;;;;;8.48;4.13;;;;;;;;;;5014746;28;20041;-66
2024/01/28 08:54:27;;;;;;;9.98;3.78;;;;;;;;;;5032953;28;20045;-66
2024/01/28 08:56:52;;;;;;;9.15;4.43;;;11.40;88.40;;;;;;5032696;28;20046;-67
2024/01/28 08:59:19;;;;;;;9.50;3.92;;;11.50;88.40;;;;;;5031304;28;20033;-66
2024/01/28 09:01:47;;;;;;;9.13;4.13;;;11.60;90.30;;;;;;5032526;28;20068;-66
2024/01/28 09:04:13;;;;;;;8.93;4.10;;;11.50;90.30;;;;;;5032802;28;20172;-66
2024/01/28 09:06:39;;;;;;;8.40;3.55;;;;;;;;;;5014974;28;20088;-66
2024/01/28 09:09:08;;;;;;;9.93;4.45;;;;;;;;;;5030960;28;20053;-67
2024/01/28 09:11:37;;;;;;;12.68;4.93;;;;;;;;;;5030880;28;20045;-66
2024/01/28 09:14:03;;;;;;;9.45;5.13;;;;;;;;;;5030944;28;20052;-66
2024/01/28 09:16:29;;;;;;;10.20;4.35;;;;;;;;;;5031227;28;20422;-66
2024/01/28 09:18:55;;;;;;;10.30;5.03;;;;;;;;;;5031078;28;20162;-66
2024/01/28 09:21:21;;;;;;;9.30;4.70;;;;;;;;;;5030888;28;20081;-66
2024/01/28 09:23:47;;;;;;;9.30;5.03;;;;;;;;;;5014548;28;20586;-66
2024/01/28 09:26:14;;;;;;;10.95;5.00;;;;;;;;;;5031011;28;20414;-66
2024/01/28 09:28:40;;;;;;;11.75;4.82;;;;;;;;;;5032083;28;20041;-66
2024/01/28 09:31:09;;;;;;;9.77;4.18;;;11.60;85.70;;;;;;5030738;28;20487;-66
2024/01/28 09:33:35;;;;;;;8.90;3.90;;;;;;;;;;5031986;28;20491;-67
2024/01/28 09:36:01;;;;;;;10.65;3.85;;;;;;;;;;5031963;28;20052;-65
2024/01/28 09:38:27;;;;;;;8.20;4.63;;;;;;;;;;5030599;28;20474;-66
2024/01/28 09:40:53;;;;;;;10.52;4.43;;;;;;;;;;5032139;28;20051;-66
2024/01/28 09:43:28;;;;;;;9.43;4.43;;;11.50;87.40;;;;;;5031583;28;20049;-66
2024/01/28 09:45:54;;;;;;;8.35;4.82;;;11.70;89.80;;;;;;5031911;28;20491;-67
2024/01/28 09:48:20;;;;;;;8.50;3.97;;;;;;;;;;5063955;28;20091;-66
2024/01/28 09:50:46;;;;;;;8.10;3.70;;;11.60;89.40;;;;;;5030535;28;20049;-66
2024/01/28 09:53:15;;;;;;;9.70;3.40;;;11.90;90.20;;;;;;5030863;28;20055;-66
2024/01/28 09:55:41;;;;;;;8.75;3.83;;;;;;;;;;5030502;28;20041;-66
2024/01/28 09:58:08;;;;;;;8.70;4.72;;;;;;;;;;5032000;28;20474;-66
2024/01/28 10:00:35;;;;;;;10.15;4.70;;;;;;;;;;5030375;28;20053;-66
2024/01/28 10:03:01;;;;;;;11.55;4.63;;;;;;;;;;5030537;28;20369;-67
2024/01/28 10:05:27;;;;;;;9.70;4.45;;;;;;;;;;5029877;28;20089;-67
2024/01/28 10:08:01;;;;;;;10.02;3.85;;;;;;;;;;5014354;28;20081;-66
2024/01/28 10:10:27;;;;;;;8.32;4.35;;;;;;;;;;5031801;28;20095;-66
2024/01/28 10:12:52;;;;;;;9.82;4.35;;;11.70;89.60;;;;;;5030541;28;20057;-66
2024/01/28 16:28:53;;;;;;;5.82;2.50;;;12.10;90.70;;;;;;4984152;28;20062;-66
2024/01/28 16:31:21;;;;;;;5.82;2.83;;;;;;;;;;5000489;28;20136;-67
2024/01/28 16:33:47;;;;;;;6.30;2.67;;;;;;;;;;5031902;28;20041;-66
2024/01/28 16:36:18;;;;;;;5.65;2.58;;;12.30;90.70;;;;;;5015540;28;20053;-66
2024/01/28 16:38:44;;;;;;;5.28;2.50;;;12.10;90.70;;;;;;5016135;28;20042;-67
2024/01/28 16:41:09;;;;;;;6.03;2.90;;;12.20;90.40;;;;;;4999292;28;20054;-67
2024/01/28 16:43:35;;;;;;;6.63;2.42;;;12.10;90.70;;;;;;5015536;28;20042;-66
2024/01/28 16:46:01;;;;;;;5.13;2.60;;;12.00;90.70;;;;;;4999592;28;20049;-69
2024/01/28 16:48:27;;;;;;;6.93;2.83;;;;;;;;;;5010025;28;20045;-68
2024/01/28 16:51:02;;;;;;;8.52;3.25;;;12.00;90.70;;;;;;5012316;28;20380;-68
2024/01/28 16:53:28;;;;;;;5.70;2.33;;;;;;;;;;5013412;28;20046;-69
2024/01/28 16:55:54;;;;;;;5.95;2.92;;;;;;;;;;5013331;28;20127;-68
2024/01/28 16:58:20;;;;;;;6.95;2.90;;;;;;;;;;5028567;28;20053;-70
2024/01/28 17:00:46;;;;;;;6.85;2.90;;;12.00;90.70;;;;;;5013201;28;20042;-67
2024/01/28 17:03:12;;;;;;;5.57;2.67;;;;;;;;;;5011629;28;20484;-66
2024/01/28 17:05:38;;;;;;;6.95;3.10;;;;;;;;;;5020294;28;20060;-66
2024/01/28 17:08:04;;;;;;;6.22;3.00;;;12.00;90.70;;;;;;5032878;28;20049;-66
2024/01/28 17:10:31;;;;;;;5.82;2.55;;;;;;;;;;5064737;28;20052;-67
2024/01/28 17:12:57;;;;;;;5.03;2.53;;;;;;;;;;5032620;28;20042;-66
2024/01/28 17:15:28;;;;;;;7.18;2.83;;;12.00;90.60;;;;;;5015092;28;20398;-67
2024/01/28 17:17:55;;;;;;;7.07;3.00;;;;;;;;;;5032725;28;20415;-67
2024/01/28 17:20:22;;;;;;;6.03;2.75;;;12.00;89.20;;;;;;5031001;28;20050;-66
2024/01/28 17:22:47;;;;;;;6.65;3.10;;;11.80;90.70;;;;;;5030792;28;20407;-67
2024/01/28 17:25:13;;;;;;;6.63;2.83;;;12.00;90.70;;;;;;5032518;28;20044;-66
2024/01/28 17:27:39;;;;;;;7.10;2.28;;;12.10;91.00;;;;;;5031153;28;20398;-67
2024/01/28 17:30:05;;;;;;;7.68;2.92;;;;;;;;;;5047461;28;20136;-66
2024/01/28 17:32:31;;;;;;;5.05;2.70;;;;;;;;;;5014466;28;20056;-66
2024/01/28 17:34:59;;;;;;;6.28;3.13;;;;;;;;;;5030729;28;20046;-66
2024/01/28 17:37:25;;;;;;;6.22;3.00;;;;;;;;;;5030957;28;20107;-66
2024/01/28 17:39:51;;;;;;;5.88;2.72;;;;;;;;;;5014056;28;20054;-67
2024/01/28 17:42:17;;;;;;;5.63;2.97;;;;;;;;;;5014271;28;20056;-66
2024/01/28 17:44:45;;;;;;;6.80;3.05;;;12.10;90.70;;;;;;5030764;28;20053;-66
2024/01/28 17:47:11;;;;;;;5.60;2.97;;;;;;;;;;5031944;28;20053;-67
2024/01/28 17:49:37;;;;;;;6.18;2.92;;;;;;;;;;5030627;28;20048;-67
2024/01/28 17:52:05;;;;;;;5.68;2.90;;;11.90;90.00;;;;;;5030947;28;20519;-66
2024/01/28 17:54:31;;;;;;;6.53;3.20;;;;;;;;;;5032165;28;20049;-66
2024/01/28 17:56:58;;;;;;;4.47;2.28;;;11.90;90.90;;;;;;5014001;28;20050;-66
2024/01/28 17:59:23;;;;;;;5.65;2.58;;;11.70;90.80;;;;;;5032029;28;20053;-66
2024/01/28 18:01:49;;;;;;;6.50;3.25;;;;;;;;;;5031714;28;20462;-67
2024/01/28 18:04:15;;;;;;;5.80;3.30;;;;;;;;;;5031702;28;20469;-67
2024/01/28 18:06:42;;;;;;;6.72;3.13;;;;;;;;;;5030634;28;20048;-67
2024/01/28 18:09:08;;;;;;;5.05;2.53;;;;;;;;;;5031593;28;20048;-66
2024/01/28 18:11:35;;;;;;;6.70;3.10;;;;;;;;;;5031506;28;20053;-67
2024/01/28 18:14:01;;;;;;;5.85;3.03;;;;;;;;;;5030065;28;20041;-65
2024/01/28 18:16:27;;;;;;;7.30;3.20;;;11.80;88.50;;;;;;5030315;28;20637;-66
2024/01/28 18:18:53;;;;;;;5.78;3.13;;;;;;;;;;5030491;28;20056;-66
2024/01/28 18:21:19;;;;;;;6.93;3.28;;;;;;;;;;5030377;28;20050;-66
2024/01/28 18:23:45;;;;;;;7.15;3.35;;;;;;;;;;5031791;28;20041;-66
2024/01/28 18:26:11;;;;;;;6.88;3.67;;;;;;;;;;5033143;28;20041;-66
2024/01/28 18:28:37;;;;;;;6.70;3.40;;;11.90;90.60;;;;;;5034014;28;20499;-67
2024/01/28 18:31:03;;;;;;;6.93;3.20;;;11.50;89.80;;;;;;5000671;28;20072;-67
2024/01/28 18:33:33;;;;;;;5.95;3.28;;;;;;;;;;5035627;28;20128;-66
2024/01/28 18:36:03;;;;;;;6.28;3.33;;;11.40;86.90;;;;;;5035797;28;20053;-67
2024/01/28 18:38:29;;;;;;;5.80;3.20;;;11.70;90.50;;;;;;5033966;28;20046;-67
2024/01/28 18:40:55;;;;;;;6.70;2.97;;;11.60;88.30;;;;;;5034295;28;20045;-66
2024/01/28 18:43:21;;;;;;;7.10;2.88;;;;;;;;;;5034133;28;20124;-67
2024/01/28 18:45:47;;;;;;;6.57;3.10;;;;;;;;;;5034269;28;20466;-66
2024/01/28 18:48:14;;;;;;;6.43;2.60;;;11.70;90.80;;;;;;5005682;28;20053;-66
2024/01/28 18:50:46;;;;;;;6.75;3.25;;;11.50;87.10;;;;;;5014194;28;20053;-66
2024/01/28 18:53:12;;;;;;;5.82;3.35;;;11.60;90.40;;;;;;4998458;28;20070;-67
2024/01/28 18:55:39;;;;;;;6.57;2.90;;;;;;;;;;4997823;28;20060;-66
2024/01/28 18:58:06;;;;;;;6.53;3.38;;;;;;;;;;5015311;28;20137;-66
2024/01/28 19:00:32;;;;;;;5.80;3.15;;;;;;;;;;5015432;28;20452;-66
2024/01/28 19:03:00;;;;;;;6.35;3.92;;;11.80;90.50;;;;;;5015426;28;20046;-66
2024/01/28 19:05:26;;;;;;;6.50;3.30;;;;;;;;;;5041325;28;20053;-67
2024/01/28 19:07:52;;;;;;;5.43;3.17;;;;;;;;;;5013737;28;20058;-66
2024/01/28 19:10:18;;;;;;;6.15;2.67;;;;;;;;;;5013670;28;20045;-67
2024/01/28 19:12:44;;;;;;;5.90;3.00;;;11.70;90.80;;;;;;5013811;28;20408;-67
2024/01/28 19:15:10;;;;;;;6.07;3.00;;;11.90;90.50;;;;;;5013593;28;20057;-66
2024/01/28 19:17:36;;;;;;;6.15;2.80;;;;;;;;;;5013841;28;20498;-66
2024/01/28 19:20:06;;;;;;;7.90;3.17;;;;;;;;;;5013753;28;20053;-67
2024/01/28 19:22:32;;;;;;;6.40;3.55;;;;;;;;;;5029812;28;20479;-66
2024/01/28 19:24:58;;;;;;;5.18;2.50;;;;;;;;;;5016879;28;20045;-67
2024/01/28 19:27:27;;;;;;;7.60;4.03;;;;;;;;;;5034704;28;20481;-66
2024/01/28 19:29:55;;;;;;;5.93;3.40;;;11.80;90.20;;;;;;5033157;28;20380;-66
2024/01/28 19:32:21;;;;;;;5.97;3.40;;;;;;;;;;5033177;28;20495;-66
2024/01/28 19:34:47;;;;;;;7.30;2.70;;;;;;;;;;5032970;28;20140;-66
2024/01/28 19:37:12;;;;;;;8.05;3.78;;;11.70;89.90;;;;;;5031816;28;20063;-66
2024/01/28 19:39:39;;;;;;;6.20;3.25;;;;;;;;;;5033008;28;20398;-66
2024/01/28 19:42:06;;;;;;;7.78;3.30;;;;;;;;;;5016497;28;20053;-66
2024/01/28 19:44:31;;;;;;;5.90;2.97;;;11.50;90.30;;;;;;5032665;28;20077;-67
2024/01/28 19:46:57;;;;;;;6.53;3.35;;;;;;;;;;5016433;28;20112;-66
2024/01/28 19:49:24;;;;;;;6.85;2.60;;;;;;;;;;5034105;28;20136;-66
2024/01/28 19:51:50;;;;;;;6.10;2.63;;;11.80;90.70;;;;;;5034233;28;20140;-66
2024/01/28 19:54:18;;;;;;;7.40;2.58;;;11.40;90.20;;;;;;5032779;28;20523;-66
2024/01/28 19:56:44;;;;;;;7.50;3.72;;;;;;;;;;5032445;28;20523;-66
2024/01/28 19:59:10;;;;;;;7.63;3.60;;;;;;;;;;5032670;28;20068;-66
2024/01/28 20:01:36;;;;;;;7.20;3.05;;;11.70;90.70;;;;;;5032778;28;20124;-66
2024/01/28 20:04:01;;;;;;;7.38;3.50;;;11.60;90.30;;;;;;5034089;28;20144;-66
2024/01/28 20:06:28;;;;;;;6.55;3.40;;;;;;;;;;5034083;28;20084;-66